createdAt,value
2023-04-26T00:00:21.773Z,100199.94
2023-04-26T00:03:10.702Z,100192.97
2023-04-26T00:05:59.399Z,100196.66
2023-04-26T00:08:48.075Z,100202.00
2023-04-26T00:11:36.742Z,100200.34
2023-04-26T00:14:25.548Z,100202.63
2023-04-26T00:17:15.986Z,100205.28
2023-04-26T00:20:06.997Z,100209.78
2023-04-26T00:22:55.712Z,100214.53
2023-04-26T00:25:44.311Z,100218.41
2023-04-26T00:28:32.912Z,100216.41
2023-04-26T00:31:21.542Z,100204.88
2023-04-26T00:34:22.381Z,100210.22
2023-04-26T00:37:13.692Z,100213.06
2023-04-26T00:40:02.310Z,100211.03
2023-04-26T00:42:50.973Z,100218.22
2023-04-26T00:45:39.934Z,100220.91
2023-04-26T00:48:29.261Z,100223.56
2023-04-26T00:51:19.428Z,100223.38
2023-04-26T00:54:08.627Z,100226.03
2023-04-26T00:56:57.346Z,100219.25
2023-04-26T00:59:46.024Z,100224.19
2023-04-26T01:02:34.868Z,100227.88
2023-04-26T01:05:23.609Z,100227.28
2023-04-26T01:08:17.181Z,100228.31
2023-04-26T01:11:06.304Z,100230.97
2023-04-26T01:13:55.030Z,100227.03
2023-04-26T01:16:46.893Z,100238.75
2023-04-26T01:19:37.739Z,100236.50
2023-04-26T01:22:26.453Z,100236.94
2023-04-26T01:25:17.882Z,100238.16
2023-04-26T01:28:06.538Z,100236.09
2023-04-26T01:30:55.234Z,100235.91
2023-04-26T01:33:43.853Z,100241.84
2023-04-26T01:36:32.581Z,100241.44
2023-04-26T01:39:21.523Z,100236.50
2023-04-26T01:42:11.721Z,100238.38
2023-04-26T01:45:00.433Z,100244.94
2023-04-26T01:47:49.278Z,100245.53
2023-04-26T01:50:37.919Z,100252.53
2023-04-26T01:53:26.614Z,100244.75
2023-04-26T01:56:18.286Z,100244.31
2023-04-26T01:59:08.266Z,100250.47
2023-04-26T02:01:56.930Z,100248.22
2023-04-26T02:04:46.046Z,100250.09
2023-04-26T02:07:34.726Z,100250.09
2023-04-26T02:10:23.377Z,100247.63
2023-04-26T02:13:12.044Z,100259.75
2023-04-26T02:16:02.068Z,100256.66
2023-04-26T02:18:50.911Z,100256.66
2023-04-26T02:21:53.116Z,100263.44
2023-04-26T02:24:41.968Z,100258.50
2023-04-26T02:27:30.788Z,100259.94
2023-04-26T02:30:19.505Z,100258.69
2023-04-26T02:33:09.740Z,100246.16
2023-04-26T02:35:58.481Z,100262.00
2023-04-26T02:38:47.280Z,100254.59
2023-04-26T02:41:35.873Z,100255.81
2023-04-26T02:44:24.500Z,100248.41
2023-04-26T02:47:13.316Z,100256.41
2023-04-26T02:50:03.737Z,100253.13
2023-04-26T02:52:52.514Z,100247.78
2023-04-26T02:55:41.186Z,100249.25
2023-04-26T02:58:29.846Z,100252.75
2023-04-26T03:01:18.895Z,100255.81
2023-04-26T03:04:07.955Z,100261.16
2023-04-26T03:06:58.054Z,100260.34
2023-04-26T03:09:46.761Z,100256.22
2023-04-26T03:12:35.409Z,100265.03
2023-04-26T03:15:24.135Z,100265.47
2023-04-26T03:18:12.806Z,100263.22
2023-04-26T03:21:01.402Z,100267.69
2023-04-26T03:23:51.435Z,100272.84
2023-04-26T03:26:40.073Z,100271.03
2023-04-26T03:29:28.811Z,100268.16
2023-04-26T03:32:17.757Z,100275.34
2023-04-26T03:35:07.349Z,100273.09
2023-04-26T03:37:58.496Z,100274.31
2023-04-26T03:40:48.777Z,100282.53
2023-04-26T03:43:37.424Z,100284.16
2023-04-26T03:46:26.294Z,100277.63
2023-04-26T03:49:14.930Z,100275.97
2023-04-26T03:52:04.218Z,100276.78
2023-04-26T03:54:52.851Z,100288.09
2023-04-26T03:57:42.897Z,100292.41
2023-04-26T04:00:31.543Z,100295.03
2023-04-26T04:03:21.703Z,100287.22
2023-04-26T04:06:10.517Z,100293.19
2023-04-26T04:08:59.144Z,100295.50
2023-04-26T04:11:47.803Z,100296.50
2023-04-26T04:14:37.814Z,100305.34
2023-04-26T04:17:26.530Z,100302.66
2023-04-26T04:20:15.751Z,100301.84
2023-04-26T04:23:06.308Z,100301.63
2023-04-26T04:25:54.959Z,100299.16
2023-04-26T04:28:45.112Z,100305.16
2023-04-26T04:31:35.287Z,100304.31
2023-04-26T04:34:24.860Z,100303.50
2023-04-26T04:37:14.378Z,100307.59
2023-04-26T04:40:03.183Z,100303.13
2023-04-26T04:42:52.282Z,100306.81
2023-04-26T04:45:40.986Z,100313.81
2023-04-26T04:48:31.108Z,100314.84
2023-04-26T04:51:20.030Z,100320.19
2023-04-26T04:54:12.867Z,100321.81
2023-04-26T04:57:01.900Z,100316.03
2023-04-26T04:59:51.208Z,100317.06
2023-04-26T05:02:40.034Z,100324.91
2023-04-26T05:05:30.310Z,100328.59
2023-04-26T05:08:19.145Z,100330.63
2023-04-26T05:11:08.254Z,100333.94
2023-04-26T05:13:57.116Z,100330.63
2023-04-26T05:16:45.961Z,100345.00
2023-04-26T05:19:34.675Z,100338.22
2023-04-26T05:22:24.642Z,100332.66
2023-04-26T05:25:13.907Z,100339.41
2023-04-26T05:28:02.517Z,100337.94
2023-04-26T05:30:51.298Z,100340.78
2023-04-26T05:33:40.092Z,100344.56
2023-04-26T05:36:31.863Z,100352.94
2023-04-26T05:39:22.052Z,100350.25
2023-04-26T05:42:11.394Z,100363.84
2023-04-26T05:45:03.780Z,100360.81
2023-04-26T05:47:53.857Z,100362.19
2023-04-26T05:50:43.333Z,100359.19
2023-04-26T05:53:32.053Z,100372.09
2023-04-26T05:56:26.751Z,100368.81
2023-04-26T05:59:15.319Z,100375.38
2023-04-26T06:02:04.792Z,100370.22
2023-04-26T06:04:54.154Z,100373.44
2023-04-26T06:07:44.218Z,100374.31
2023-04-26T06:10:32.971Z,100383.19
2023-04-26T06:13:23.158Z,100376.63
2023-04-26T06:16:11.923Z,100369.63
2023-04-26T06:19:00.474Z,100372.97
2023-04-26T06:21:49.941Z,100368.44
2023-04-26T06:24:38.515Z,100371.97
2023-04-26T06:27:27.218Z,100380.78
2023-04-26T06:30:17.505Z,100378.72
2023-04-26T06:33:06.284Z,100370.91
2023-04-26T06:35:55.096Z,100371.94
2023-04-26T06:38:43.771Z,100384.47
2023-04-26T06:41:32.508Z,100377.47
2023-04-26T06:44:21.212Z,100380.78
2023-04-26T06:47:11.344Z,100370.50
2023-04-26T06:49:59.992Z,100377.06
2023-04-26T06:52:48.631Z,100382.03
2023-04-26T06:55:37.494Z,100381.63
2023-04-26T06:58:26.466Z,100383.69
2023-04-26T07:01:15.390Z,100393.97
2023-04-26T07:04:07.921Z,100388.22
2023-04-26T07:06:57.899Z,100395.59
2023-04-26T07:09:47.064Z,100398.06
2023-04-26T07:12:35.806Z,100395.41
2023-04-26T07:15:24.689Z,100390.09
2023-04-26T07:18:13.444Z,100392.53
2023-04-26T07:21:03.425Z,100396.84
2023-04-26T07:23:55.837Z,100397.25
2023-04-26T07:26:44.604Z,100389.22
2023-04-26T07:29:33.469Z,100393.78
2023-04-26T07:32:22.340Z,100395.44
2023-04-26T07:35:16.334Z,100392.75
2023-04-26T07:38:07.311Z,100395.03
2023-04-26T07:40:57.274Z,100391.13
2023-04-26T07:43:45.993Z,100396.22
2023-04-26T07:46:35.039Z,100399.31
2023-04-26T07:49:23.759Z,100396.47
2023-04-26T07:52:12.652Z,100390.09
2023-04-26T07:55:02.849Z,100396.84
2023-04-26T07:57:51.525Z,100387.19
2023-04-26T08:00:43.119Z,100393.41
2023-04-26T08:03:32.487Z,100389.06
2023-04-26T08:06:21.936Z,100386.22
2023-04-26T08:09:11.194Z,100392.75
2023-04-26T08:12:06.926Z,100392.97
2023-04-26T08:14:55.504Z,100390.28
2023-04-26T08:17:44.324Z,100391.31
2023-04-26T08:20:33.641Z,100395.19
2023-04-26T08:23:26.429Z,100402.59
2023-04-26T08:26:15.060Z,100397.06
2023-04-26T08:29:05.388Z,100411.31
2023-04-26T08:31:54.266Z,100408.00
2023-04-26T08:34:42.979Z,100404.31
2023-04-26T08:37:31.789Z,100406.97
2023-04-26T08:40:25.735Z,100400.59
2023-04-26T08:43:17.286Z,100401.38
2023-04-26T08:46:12.637Z,100393.63
2023-04-26T08:49:13.188Z,100396.03
2023-04-26T08:52:02.168Z,100389.66
2023-04-26T08:54:52.549Z,100392.75
2023-04-26T08:57:41.882Z,100394.41
2023-04-26T09:00:31.140Z,100396.47
2023-04-26T09:03:21.522Z,100398.16
2023-04-26T09:06:11.005Z,100405.56
2023-04-26T09:09:00.365Z,100397.69
2023-04-26T09:11:59.762Z,100402.25
2023-04-26T09:14:49.608Z,100410.50
2023-04-26T09:17:41.664Z,100403.09
2023-04-26T09:20:33.040Z,100406.38
2023-04-26T09:23:21.739Z,100399.81
2023-04-26T09:26:20.984Z,100409.88
2023-04-26T09:29:17.338Z,100417.91
2023-04-26T09:32:07.933Z,100402.25
2023-04-26T09:34:58.354Z,100402.47
2023-04-26T09:38:00.236Z,100403.69
2023-04-26T09:40:53.418Z,100404.53
2023-04-26T09:43:42.982Z,100408.88
2023-04-26T09:46:32.326Z,100407.63
2023-04-26T09:49:21.733Z,100408.44
2023-04-26T09:52:14.063Z,100413.38
2023-04-26T09:55:04.345Z,100405.59
2023-04-26T09:57:53.164Z,100413.03
2023-04-26T10:00:43.492Z,100399.44
2023-04-26T10:03:33.452Z,100411.00
2023-04-26T10:06:22.259Z,100399.88
2023-04-26T10:09:11.650Z,100408.50
2023-04-26T10:12:03.419Z,100405.19
2023-04-26T10:14:52.193Z,100411.16
2023-04-26T10:17:41.334Z,100404.34
2023-04-26T10:20:33.284Z,100409.91
2023-04-26T10:23:25.623Z,100407.25
2023-04-26T10:26:49.605Z,100410.94
2023-04-26T10:30:12.069Z,100404.56
2023-04-26T10:33:19.015Z,100400.44
2023-04-26T10:36:13.081Z,100398.19
2023-04-26T10:39:21.940Z,100398.59
2023-04-26T10:42:30.195Z,100404.56
2023-04-26T10:45:31.907Z,100401.66
2023-04-26T10:48:23.093Z,100399.59
2023-04-26T10:51:13.625Z,100405.59
2023-04-26T10:54:04.642Z,100407.22
2023-04-26T10:56:54.386Z,100394.47
2023-04-26T11:00:30.760Z,100401.28
2023-04-26T11:03:25.098Z,100402.69
2023-04-26T11:06:18.173Z,100404.75
2023-04-26T11:09:37.142Z,100398.78
2023-04-26T11:12:26.638Z,100398.38
2023-04-26T11:15:15.982Z,100397.94
2023-04-26T11:18:06.369Z,100396.53
2023-04-26T11:20:56.896Z,100391.56
2023-04-26T11:23:55.523Z,100398.16
2023-04-26T11:26:44.194Z,100396.91
2023-04-26T11:29:32.855Z,100397.94
2023-04-26T11:32:21.788Z,100391.19
2023-04-26T11:35:11.426Z,100396.72
2023-04-26T11:38:01.745Z,100402.25
2023-04-26T11:40:55.504Z,100404.75
2023-04-26T11:43:44.317Z,100396.09
2023-04-26T11:46:33.242Z,100407.22
2023-04-26T11:49:22.134Z,100417.06
2023-04-26T11:52:11.565Z,100424.47
2023-04-26T11:55:07.084Z,100416.25
2023-04-26T11:57:55.986Z,100420.56
2023-04-26T12:01:01.767Z,100419.31
2023-04-26T12:03:52.956Z,100426.94
2023-04-26T12:06:46.224Z,100424.88
2023-04-26T12:09:34.914Z,100427.72
2023-04-26T12:12:25.376Z,100419.94
2023-04-26T12:15:15.587Z,100418.28
2023-04-26T12:18:10.204Z,100420.94
2023-04-26T12:21:00.219Z,100418.69
2023-04-26T12:23:49.171Z,100423.63
2023-04-26T12:26:45.402Z,100423.63
2023-04-26T12:29:35.979Z,100420.94
2023-04-26T12:32:24.622Z,100425.22
2023-04-26T12:35:13.291Z,100424.88
2023-04-26T12:38:02.043Z,100421.38
2023-04-26T12:40:51.334Z,100419.94
2023-04-26T12:43:40.007Z,100409.66
2023-04-26T12:46:30.134Z,100412.94
2023-04-26T12:49:18.846Z,100414.34
2023-04-26T12:52:07.589Z,100418.28
2023-04-26T12:54:56.604Z,100415.00
2023-04-26T12:57:46.593Z,100414.53
2023-04-26T13:00:38.125Z,100421.19
2023-04-26T13:03:29.067Z,100417.66
2023-04-26T13:06:17.818Z,100409.19
2023-04-26T13:09:07.942Z,100416.19
2023-04-26T13:11:56.570Z,100424.59
2023-04-26T13:14:46.178Z,100421.13
2023-04-26T13:17:35.280Z,100413.34
2023-04-26T13:20:26.745Z,100412.69
2023-04-26T13:23:17.642Z,100412.50
2023-04-26T13:26:06.418Z,100413.72
2023-04-26T13:28:54.982Z,100418.69
2023-04-26T13:31:43.726Z,100415.19
2023-04-26T13:34:32.390Z,100407.16
2023-04-26T13:37:23.790Z,100408.25
2023-04-26T13:40:13.096Z,100406.19
2023-04-26T13:43:01.786Z,100413.19
2023-04-26T13:45:50.415Z,100408.47
2023-04-26T13:48:39.163Z,100411.97
2023-04-26T13:51:30.535Z,100411.31
2023-04-26T13:54:21.933Z,100411.97
2023-04-26T13:57:11.779Z,100411.53
2023-04-26T14:00:00.426Z,100417.94
2023-04-26T14:02:49.347Z,100419.97
2023-04-26T14:05:38.095Z,100418.31
2023-04-26T14:08:26.762Z,100423.88
2023-04-26T14:11:17.107Z,100416.66
2023-04-26T14:14:05.816Z,100424.91
2023-04-26T14:16:54.450Z,100428.19
2023-04-26T14:19:43.188Z,100429.00
2023-04-26T14:22:31.894Z,100425.72
2023-04-26T14:25:20.874Z,100433.53
2023-04-26T14:28:11.015Z,100431.06
2023-04-26T14:31:00.145Z,100426.31
2023-04-26T14:33:48.782Z,100425.50
2023-04-26T14:36:37.506Z,100430.69
2023-04-26T14:39:26.203Z,100433.34
2023-04-26T14:42:14.952Z,100429.44
2023-04-26T14:45:05.342Z,100421.41
2023-04-26T14:47:54.026Z,100434.31
2023-04-26T14:50:42.807Z,100441.97
2023-04-26T14:53:31.528Z,100430.38
2023-04-26T14:56:20.247Z,100429.75
2023-04-26T14:59:09.120Z,100437.78
2023-04-26T15:01:59.204Z,100435.72
2023-04-26T15:04:47.985Z,100424.03
2023-04-26T15:07:37.004Z,100423.19
2023-04-26T15:10:25.649Z,100426.47
2023-04-26T15:13:14.474Z,100437.53
2023-04-26T15:16:07.329Z,100432.19
2023-04-26T15:18:57.961Z,100424.03
2023-04-26T15:21:46.606Z,100427.69
2023-04-26T15:24:37.652Z,100432.59
2023-04-26T15:27:26.892Z,100430.16
2023-04-26T15:30:15.746Z,100430.63
2023-04-26T15:33:04.475Z,100426.94
2023-04-26T15:35:54.455Z,100440.50
2023-04-26T15:38:45.289Z,100435.59
2023-04-26T15:41:34.025Z,100428.19
2023-04-26T15:44:22.646Z,100441.97
2023-04-26T15:47:11.243Z,100439.69
2023-04-26T15:50:04.605Z,100445.00
2023-04-26T15:52:54.611Z,100443.75
2023-04-26T15:55:43.143Z,100443.72
2023-04-26T15:58:31.943Z,100440.00
2023-04-26T16:01:21.134Z,100445.34
2023-04-26T16:04:10.180Z,100442.06
2023-04-26T16:06:59.080Z,100437.13
2023-04-26T16:09:49.065Z,100435.06
2023-04-26T16:12:39.568Z,100441.59
2023-04-26T16:15:28.220Z,100436.88
2023-04-26T16:18:17.203Z,100437.88
2023-04-26T16:21:06.469Z,100438.06
2023-04-26T16:23:55.089Z,100439.50
2023-04-26T16:26:45.011Z,100440.13
2023-04-26T16:29:33.711Z,100437.69
2023-04-26T16:32:22.450Z,100441.16
2023-04-26T16:35:11.576Z,100435.38
2023-04-26T16:38:00.306Z,100438.91
2023-04-26T16:40:58.065Z,100441.09
2023-04-26T16:43:48.332Z,100440.31
2023-04-26T16:46:37.138Z,100438.69
2023-04-26T16:49:26.033Z,100447.69
2023-04-26T16:52:14.695Z,100448.94
2023-04-26T16:55:04.035Z,100444.34
2023-04-26T16:57:52.629Z,100451.91
2023-04-26T17:00:42.886Z,100446.00
2023-04-26T17:03:31.787Z,100450.59
2023-04-26T17:06:20.970Z,100449.75
2023-04-26T17:09:09.527Z,100459.66
2023-04-26T17:11:58.135Z,100454.28
2023-04-26T17:14:46.772Z,100458.34
2023-04-26T17:17:37.605Z,100462.28
2023-04-26T17:20:26.227Z,100456.31
2023-04-26T17:23:14.819Z,100467.00
2023-04-26T17:26:04.246Z,100462.50
2023-04-26T17:28:52.864Z,100465.19
2023-04-26T17:31:41.623Z,100475.88
2023-04-26T17:34:33.870Z,100471.13
2023-04-26T17:37:23.063Z,100475.88
2023-04-26T17:40:12.298Z,100471.59
2023-04-26T17:43:00.994Z,100471.19
2023-04-26T17:45:49.697Z,100466.88
2023-04-26T17:48:38.481Z,100476.53
2023-04-26T17:51:28.444Z,100478.84
2023-04-26T17:54:17.115Z,100481.09
2023-04-26T17:57:07.675Z,100479.88
2023-04-26T17:59:56.488Z,100479.00
2023-04-26T18:02:45.437Z,100480.66
2023-04-26T18:05:34.296Z,100482.28
2023-04-26T18:08:24.635Z,100490.56
2023-04-26T18:11:13.265Z,100477.63
2023-04-26T18:14:02.005Z,100482.78
2023-04-26T18:16:50.699Z,100481.56
2023-04-26T18:19:39.595Z,100492.69
2023-04-26T18:22:28.188Z,100498.53
2023-04-26T18:25:18.429Z,100493.84
2023-04-26T18:28:08.636Z,100494.22
2023-04-26T18:30:58.507Z,100496.09
2023-04-26T18:33:48.221Z,100499.84
2023-04-26T18:36:40.043Z,100500.69
2023-04-26T18:39:29.040Z,100499.00
2023-04-26T18:42:22.334Z,100505.63
2023-04-26T18:45:11.921Z,100508.13
2023-04-26T18:48:00.720Z,100505.25
2023-04-26T18:50:52.713Z,100512.69
2023-04-26T18:53:41.383Z,100508.97
2023-04-26T18:56:30.346Z,100509.19
2023-04-26T18:59:20.296Z,100507.31
2023-04-26T19:02:09.465Z,100506.09
2023-04-26T19:04:58.939Z,100514.94
2023-04-26T19:07:47.702Z,100517.00
2023-04-26T19:10:36.584Z,100512.91
2023-04-26T19:13:25.534Z,100523.81
2023-04-26T19:16:15.533Z,100522.16
2023-04-26T19:19:04.439Z,100530.81
2023-04-26T19:21:53.365Z,100529.16
2023-04-26T19:24:41.983Z,100529.97
2023-04-26T19:27:30.820Z,100526.06
2023-04-26T19:30:19.653Z,100527.28
2023-04-26T19:33:09.733Z,100535.13
2023-04-26T19:35:58.528Z,100528.75
2023-04-26T19:38:48.474Z,100525.03
2023-04-26T19:41:37.071Z,100537.38
2023-04-26T19:44:26.204Z,100539.44
2023-04-26T19:47:14.849Z,100543.75
2023-04-26T19:50:05.092Z,100542.34
2023-04-26T19:52:53.732Z,100543.16
2023-04-26T19:55:43.392Z,100540.28
2023-04-26T19:58:32.362Z,100539.63
2023-04-26T20:01:21.251Z,100541.69
2023-04-26T20:04:09.990Z,100541.69
2023-04-26T20:07:00.133Z,100544.38
2023-04-26T20:09:48.744Z,100544.00
2023-04-26T20:12:37.582Z,100546.03
2023-04-26T20:15:26.555Z,100545.00
2023-04-26T20:18:15.153Z,100540.47
2023-04-26T20:21:03.849Z,100543.16
2023-04-26T20:23:53.848Z,100543.16
2023-04-26T20:26:42.660Z,100536.16
2023-04-26T20:29:31.341Z,100535.75
2023-04-26T20:32:19.971Z,100540.91
2023-04-26T20:35:09.565Z,100539.44
2023-04-26T20:37:58.185Z,100539.63
2023-04-26T20:40:49.212Z,100531.22
2023-04-26T20:43:37.832Z,100537.38
2023-04-26T20:46:26.985Z,100541.69
2023-04-26T20:49:15.756Z,100542.72
2023-04-26T20:52:04.366Z,100533.25
2023-04-26T20:54:52.964Z,100539.44
2023-04-26T20:57:42.980Z,100538.38
2023-04-26T21:00:31.565Z,100536.53
2023-04-26T21:03:20.444Z,100536.28
2023-04-26T21:06:09.278Z,100537.34
2023-04-26T21:08:57.897Z,100537.31
2023-04-26T21:11:46.596Z,100540.19
2023-04-26T21:14:36.568Z,100541.19
2023-04-26T21:17:25.535Z,100538.50
2023-04-26T21:20:14.402Z,100542.84
2023-04-26T21:23:02.974Z,100544.09
2023-04-26T21:25:51.660Z,100547.81
2023-04-26T21:28:40.331Z,100551.28
2023-04-26T21:31:30.499Z,100554.19
2023-04-26T21:34:19.128Z,100559.94
2023-04-26T21:37:07.769Z,100566.19
2023-04-26T21:39:56.513Z,100564.47
2023-04-26T21:42:57.761Z,100568.19
2023-04-26T21:45:53.263Z,100559.94
2023-04-26T21:48:43.429Z,100566.78
2023-04-26T21:51:32.146Z,100568.56
2023-04-26T21:54:20.714Z,100570.00
2023-04-26T21:57:09.405Z,100571.88
2023-04-26T21:59:58.025Z,100578.44
2023-04-26T22:02:51.335Z,100575.75
2023-04-26T22:05:41.598Z,100581.72
2023-04-26T22:08:30.256Z,100583.78
2023-04-26T22:11:18.851Z,100583.97
2023-04-26T22:14:07.500Z,100584.19
2023-04-26T22:16:56.261Z,100590.16
2023-04-26T22:19:45.037Z,100589.91
2023-04-26T22:22:35.376Z,100582.97
2023-04-26T22:25:24.493Z,100584.19
2023-04-26T22:28:13.270Z,100585.41
2023-04-26T22:31:01.918Z,100595.25
2023-04-26T22:33:50.623Z,100595.91
2023-04-26T22:36:39.613Z,100593.00
2023-04-26T22:39:29.785Z,100601.03
2023-04-26T22:42:18.396Z,100602.66
2023-04-26T22:45:09.510Z,100598.13
2023-04-26T22:47:58.206Z,100604.50
2023-04-26T22:50:50.499Z,100608.59
2023-04-26T22:53:39.211Z,100598.91
2023-04-26T22:56:29.401Z,100602.63
2023-04-26T22:59:17.987Z,100610.00
2023-04-26T23:02:07.171Z,100610.41
2023-04-26T23:04:55.896Z,100618.84
2023-04-26T23:07:45.174Z,100611.84
2023-04-26T23:10:33.780Z,100614.16
2023-04-26T23:13:23.912Z,100613.75
2023-04-26T23:16:13.145Z,100620.13
2023-04-26T23:19:01.735Z,100615.78
2023-04-26T23:21:50.298Z,100614.16
2023-04-26T23:24:38.908Z,100619.13
2023-04-26T23:27:27.672Z,100617.47
2023-04-26T23:30:18.725Z,100620.75
2023-04-26T23:33:07.368Z,100617.94
2023-04-26T23:35:56.825Z,100620.34
2023-04-26T23:38:45.419Z,100613.34
2023-04-26T23:41:34.088Z,100617.47
2023-04-26T23:44:22.749Z,100620.91
2023-04-26T23:47:12.756Z,100610.88
2023-04-26T23:50:01.412Z,100617.44
2023-04-26T23:52:50.052Z,100614.34
2023-04-26T23:55:39.405Z,100613.09
2023-04-26T23:58:28.064Z,100604.63
